sensor_id;sensor_type;location;lat;lon;timestamp;P1;durP1;ratioP1;P2;durP2;ratioP2
15486;SDS011;7845;53.698;10.078;2024-03-08T00:02:06;18.00;;;18.00;;
15486;SDS011;7845;53.698;10.078;2024-03-08T00:04:32;19.25;;;17.75;;
15486;SDS011;7845;53.698;10.078;2024-03-08T00:06:57;23.75;;;22.00;;
15486;SDS011;7845;53.698;10.078;2024-03-08T00:09:22;19.50;;;18.50;;
15486;SDS011;7845;53.698;10.078;2024-03-08T00:11:48;19.25;;;18.75;;
15486;SDS011;7845;53.698;10.078;2024-03-08T00:14:15;20.25;;;18.50;;
15486;SDS011;7845;53.698;10.078;2024-03-08T00:16:41;20.00;;;18.50;;
15486;SDS011;7845;53.698;10.078;2024-03-08T00:19:08;22.50;;;21.50;;
15486;SDS011;7845;53.698;10.078;2024-03-08T00:21:34;21.00;;;21.00;;
15486;SDS011;7845;53.698;10.078;2024-03-08T00:24:00;18.75;;;17.25;;
15486;SDS011;7845;53.698;10.078;2024-03-08T00:26:26;27.50;;;24.00;;
15486;SDS011;7845;53.698;10.078;2024-03-08T00:28:51;20.50;;;18.00;;
15486;SDS011;7845;53.698;10.078;2024-03-08T00:31:17;19.25;;;18.00;;
15486;SDS011;7845;53.698;10.078;2024-03-08T00:33:42;18.75;;;18.50;;
15486;SDS011;7845;53.698;10.078;2024-03-08T00:36:07;20.75;;;20.00;;
15486;SDS011;7845;53.698;10.078;2024-03-08T00:38:33;20.00;;;18.50;;
15486;SDS011;7845;53.698;10.078;2024-03-08T00:40:59;19.50;;;17.75;;
15486;SDS011;7845;53.698;10.078;2024-03-08T00:43:24;17.50;;;16.00;;
15486;SDS011;7845;53.698;10.078;2024-03-08T00:45:49;21.00;;;21.00;;
15486;SDS011;7845;53.698;10.078;2024-03-08T00:48:15;22.00;;;20.50;;
15486;SDS011;7845;53.698;10.078;2024-03-08T00:50:40;21.25;;;18.75;;
15486;SDS011;7845;53.698;10.078;2024-03-08T00:53:05;19.50;;;17.25;;
15486;SDS011;7845;53.698;10.078;2024-03-08T00:55:31;15.50;;;14.75;;
15486;SDS011;7845;53.698;10.078;2024-03-08T00:57:56;25.25;;;23.75;;
15486;SDS011;7845;53.698;10.078;2024-03-08T01:00:22;17.00;;;16.00;;
15486;SDS011;7845;53.698;10.078;2024-03-08T01:02:47;24.00;;;21.50;;
15486;SDS011;7845;53.698;10.078;2024-03-08T01:05:13;18.50;;;18.00;;
15486;SDS011;7845;53.698;10.078;2024-03-08T01:07:38;21.75;;;21.75;;
15486;SDS011;7845;53.698;10.078;2024-03-08T01:10:04;19.00;;;16.75;;
15486;SDS011;7845;53.698;10.078;2024-03-08T01:12:34;20.50;;;17.75;;
15486;SDS011;7845;53.698;10.078;2024-03-08T01:14:59;20.50;;;18.00;;
15486;SDS011;7845;53.698;10.078;2024-03-08T01:17:25;19.75;;;18.50;;
15486;SDS011;7845;53.698;10.078;2024-03-08T01:19:51;23.50;;;21.75;;
15486;SDS011;7845;53.698;10.078;2024-03-08T01:22:16;23.50;;;21.00;;
15486;SDS011;7845;53.698;10.078;2024-03-08T01:24:41;23.25;;;21.75;;
15486;SDS011;7845;53.698;10.078;2024-03-08T01:27:06;24.75;;;20.75;;
15486;SDS011;7845;53.698;10.078;2024-03-08T01:29:34;19.75;;;18.25;;
15486;SDS011;7845;53.698;10.078;2024-03-08T01:31:59;20.50;;;20.50;;
15486;SDS011;7845;53.698;10.078;2024-03-08T01:34:26;26.75;;;23.75;;
15486;SDS011;7845;53.698;10.078;2024-03-08T01:36:53;18.50;;;18.50;;
15486;SDS011;7845;53.698;10.078;2024-03-08T01:39:20;15.50;;;15.50;;
15486;SDS011;7845;53.698;10.078;2024-03-08T01:41:46;20.25;;;19.50;;
15486;SDS011;7845;53.698;10.078;2024-03-08T01:44:12;23.50;;;22.25;;
15486;SDS011;7845;53.698;10.078;2024-03-08T01:46:42;20.50;;;19.50;;
15486;SDS011;7845;53.698;10.078;2024-03-08T01:49:09;17.00;;;15.00;;
15486;SDS011;7845;53.698;10.078;2024-03-08T01:51:36;22.00;;;20.50;;
15486;SDS011;7845;53.698;10.078;2024-03-08T01:54:02;20.00;;;18.00;;
15486;SDS011;7845;53.698;10.078;2024-03-08T01:56:29;24.00;;;20.50;;
15486;SDS011;7845;53.698;10.078;2024-03-08T01:58:56;18.50;;;17.50;;
15486;SDS011;7845;53.698;10.078;2024-03-08T02:01:24;18.50;;;18.00;;
15486;SDS011;7845;53.698;10.078;2024-03-08T02:03:50;18.50;;;17.00;;
15486;SDS011;7845;53.698;10.078;2024-03-08T02:06:15;21.75;;;18.25;;
15486;SDS011;7845;53.698;10.078;2024-03-08T02:08:42;18.50;;;17.00;;
15486;SDS011;7845;53.698;10.078;2024-03-08T02:11:09;23.75;;;20.50;;
15486;SDS011;7845;53.698;10.078;2024-03-08T02:13:35;17.00;;;16.00;;
15486;SDS011;7845;53.698;10.078;2024-03-08T02:16:01;23.00;;;21.50;;
15486;SDS011;7845;53.698;10.078;2024-03-08T02:18:27;21.75;;;18.50;;
15486;SDS011;7845;53.698;10.078;2024-03-08T02:20:57;17.25;;;15.00;;
15486;SDS011;7845;53.698;10.078;2024-03-08T02:23:24;18.25;;;18.00;;
15486;SDS011;7845;53.698;10.078;2024-03-08T02:25:51;22.50;;;19.50;;
15486;SDS011;7845;53.698;10.078;2024-03-08T02:28:17;18.25;;;16.00;;
15486;SDS011;7845;53.698;10.078;2024-03-08T02:30:45;17.50;;;15.75;;
15486;SDS011;7845;53.698;10.078;2024-03-08T02:33:15;16.75;;;16.75;;
15486;SDS011;7845;53.698;10.078;2024-03-08T02:35:42;15.00;;;15.00;;
15486;SDS011;7845;53.698;10.078;2024-03-08T02:38:10;16.50;;;16.00;;
15486;SDS011;7845;53.698;10.078;2024-03-08T02:40:46;17.00;;;17.00;;
15486;SDS011;7845;53.698;10.078;2024-03-08T02:43:13;17.00;;;16.00;;
15486;SDS011;7845;53.698;10.078;2024-03-08T02:45:40;15.25;;;13.75;;
15486;SDS011;7845;53.698;10.078;2024-03-08T02:48:07;17.25;;;16.00;;
15486;SDS011;7845;53.698;10.078;2024-03-08T02:50:33;24.75;;;21.00;;
15486;SDS011;7845;53.698;10.078;2024-03-08T02:52:59;14.50;;;14.50;;
15486;SDS011;7845;53.698;10.078;2024-03-08T02:55:25;16.25;;;14.75;;
15486;SDS011;7845;53.698;10.078;2024-03-08T02:57:51;16.50;;;16.25;;
15486;SDS011;7845;53.698;10.078;2024-03-08T03:00:17;16.50;;;15.00;;
15486;SDS011;7845;53.698;10.078;2024-03-08T03:02:44;18.00;;;17.00;;
15486;SDS011;7845;53.698;10.078;2024-03-08T03:05:09;19.25;;;18.50;;
15486;SDS011;7845;53.698;10.078;2024-03-08T03:07:36;19.00;;;18.75;;
15486;SDS011;7845;53.698;10.078;2024-03-08T03:10:02;15.25;;;13.00;;
15486;SDS011;7845;53.698;10.078;2024-03-08T03:12:28;16.50;;;14.50;;
15486;SDS011;7845;53.698;10.078;2024-03-08T03:14:54;14.00;;;13.00;;
15486;SDS011;7845;53.698;10.078;2024-03-08T03:17:21;14.00;;;12.50;;
15486;SDS011;7845;53.698;10.078;2024-03-08T03:19:49;18.00;;;15.75;;
15486;SDS011;7845;53.698;10.078;2024-03-08T03:22:15;7.75;;;7.75;;
15486;SDS011;7845;53.698;10.078;2024-03-08T03:24:41;17.00;;;16.00;;
15486;SDS011;7845;53.698;10.078;2024-03-08T03:27:07;17.75;;;15.75;;
15486;SDS011;7845;53.698;10.078;2024-03-08T03:29:39;20.50;;;16.50;;
15486;SDS011;7845;53.698;10.078;2024-03-08T03:32:07;17.50;;;15.75;;
15486;SDS011;7845;53.698;10.078;2024-03-08T03:34:33;19.00;;;19.00;;
15486;SDS011;7845;53.698;10.078;2024-03-08T03:37:01;19.00;;;18.25;;
15486;SDS011;7845;53.698;10.078;2024-03-08T03:39:27;16.75;;;16.75;;
15486;SDS011;7845;53.698;10.078;2024-03-08T03:41:56;15.50;;;14.25;;
15486;SDS011;7845;53.698;10.078;2024-03-08T03:44:21;18.00;;;14.50;;
15486;SDS011;7845;53.698;10.078;2024-03-08T03:46:48;17.50;;;16.50;;
15486;SDS011;7845;53.698;10.078;2024-03-08T03:49:15;15.75;;;13.00;;
15486;SDS011;7845;53.698;10.078;2024-03-08T03:51:41;17.00;;;13.50;;
15486;SDS011;7845;53.698;10.078;2024-03-08T03:54:06;16.25;;;14.00;;
15486;SDS011;7845;53.698;10.078;2024-03-08T03:56:32;17.00;;;15.50;;
15486;SDS011;7845;53.698;10.078;2024-03-08T03:58:57;15.25;;;13.00;;
15486;SDS011;7845;53.698;10.078;2024-03-08T04:01:23;16.50;;;15.50;;
15486;SDS011;7845;53.698;10.078;2024-03-08T04:03:49;18.50;;;16.00;;
15486;SDS011;7845;53.698;10.078;2024-03-08T04:06:14;17.50;;;16.00;;
15486;SDS011;7845;53.698;10.078;2024-03-08T04:08:39;19.00;;;18.00;;
15486;SDS011;7845;53.698;10.078;2024-03-08T04:11:06;18.25;;;18.25;;
15486;SDS011;7845;53.698;10.078;2024-03-08T04:13:32;16.00;;;15.00;;
15486;SDS011;7845;53.698;10.078;2024-03-08T04:15:57;16.75;;;15.50;;
15486;SDS011;7845;53.698;10.078;2024-03-08T04:18:23;22.25;;;19.00;;
15486;SDS011;7845;53.698;10.078;2024-03-08T04:20:48;15.50;;;15.25;;
15486;SDS011;7845;53.698;10.078;2024-03-08T04:23:14;9.25;;;8.00;;
15486;SDS011;7845;53.698;10.078;2024-03-08T04:25:40;14.50;;;13.00;;
15486;SDS011;7845;53.698;10.078;2024-03-08T04:28:07;20.00;;;18.75;;
15486;SDS011;7845;53.698;10.078;2024-03-08T04:30:32;15.75;;;15.25;;
15486;SDS011;7845;53.698;10.078;2024-03-08T04:32:57;18.00;;;17.50;;
15486;SDS011;7845;53.698;10.078;2024-03-08T04:35:23;15.75;;;14.00;;
15486;SDS011;7845;53.698;10.078;2024-03-08T04:37:49;19.50;;;18.25;;
15486;SDS011;7845;53.698;10.078;2024-03-08T04:40:14;13.25;;;12.50;;
15486;SDS011;7845;53.698;10.078;2024-03-08T04:42:39;20.00;;;18.00;;
15486;SDS011;7845;53.698;10.078;2024-03-08T04:45:08;16.00;;;16.00;;
15486;SDS011;7845;53.698;10.078;2024-03-08T04:47:35;18.00;;;16.50;;
15486;SDS011;7845;53.698;10.078;2024-03-08T04:50:01;24.25;;;22.00;;
15486;SDS011;7845;53.698;10.078;2024-03-08T04:52:27;16.75;;;15.00;;
15486;SDS011;7845;53.698;10.078;2024-03-08T04:54:53;15.00;;;13.00;;
15486;SDS011;7845;53.698;10.078;2024-03-08T04:57:18;20.00;;;16.50;;
15486;SDS011;7845;53.698;10.078;2024-03-08T04:59:44;15.25;;;15.00;;
15486;SDS011;7845;53.698;10.078;2024-03-08T05:02:09;12.00;;;9.00;;
15486;SDS011;7845;53.698;10.078;2024-03-08T05:04:34;16.50;;;15.75;;
15486;SDS011;7845;53.698;10.078;2024-03-08T05:07:00;13.00;;;12.25;;
15486;SDS011;7845;53.698;10.078;2024-03-08T05:09:26;15.75;;;15.50;;
15486;SDS011;7845;53.698;10.078;2024-03-08T05:11:51;16.00;;;16.00;;
15486;SDS011;7845;53.698;10.078;2024-03-08T05:14:16;18.75;;;16.25;;
15486;SDS011;7845;53.698;10.078;2024-03-08T05:16:42;14.50;;;12.75;;
15486;SDS011;7845;53.698;10.078;2024-03-08T05:19:08;19.25;;;16.75;;
15486;SDS011;7845;53.698;10.078;2024-03-08T05:21:34;17.00;;;14.00;;
15486;SDS011;7845;53.698;10.078;2024-03-08T05:23:59;16.00;;;15.00;;
15486;SDS011;7845;53.698;10.078;2024-03-08T05:26:24;18.00;;;17.00;;
15486;SDS011;7845;53.698;10.078;2024-03-08T05:28:50;13.50;;;12.25;;
15486;SDS011;7845;53.698;10.078;2024-03-08T05:31:22;14.50;;;13.00;;
15486;SDS011;7845;53.698;10.078;2024-03-08T05:33:48;21.75;;;20.50;;
15486;SDS011;7845;53.698;10.078;2024-03-08T05:36:14;13.75;;;13.00;;
15486;SDS011;7845;53.698;10.078;2024-03-08T05:38:41;15.25;;;14.00;;
15486;SDS011;7845;53.698;10.078;2024-03-08T05:41:08;22.00;;;20.50;;
15486;SDS011;7845;53.698;10.078;2024-03-08T05:43:34;21.00;;;17.00;;
15486;SDS011;7845;53.698;10.078;2024-03-08T05:45:59;17.75;;;16.25;;
15486;SDS011;7845;53.698;10.078;2024-03-08T05:48:24;17.75;;;15.75;;
15486;SDS011;7845;53.698;10.078;2024-03-08T05:50:50;22.00;;;22.00;;
15486;SDS011;7845;53.698;10.078;2024-03-08T05:53:15;17.50;;;15.50;;
15486;SDS011;7845;53.698;10.078;2024-03-08T05:55:40;21.50;;;20.50;;
15486;SDS011;7845;53.698;10.078;2024-03-08T05:58:06;23.50;;;20.00;;
15486;SDS011;7845;53.698;10.078;2024-03-08T06:00:32;18.50;;;15.75;;
15486;SDS011;7845;53.698;10.078;2024-03-08T06:02:58;21.75;;;17.75;;
15486;SDS011;7845;53.698;10.078;2024-03-08T06:05:24;18.50;;;16.50;;
15486;SDS011;7845;53.698;10.078;2024-03-08T06:07:49;21.75;;;21.00;;
15486;SDS011;7845;53.698;10.078;2024-03-08T06:10:15;19.25;;;17.75;;
15486;SDS011;7845;53.698;10.078;2024-03-08T06:12:42;24.75;;;22.00;;
15486;SDS011;7845;53.698;10.078;2024-03-08T06:15:08;24.25;;;21.50;;
15486;SDS011;7845;53.698;10.078;2024-03-08T06:17:35;19.00;;;16.75;;
15486;SDS011;7845;53.698;10.078;2024-03-08T06:20:03;27.50;;;25.00;;
15486;SDS011;7845;53.698;10.078;2024-03-08T06:22:35;20.50;;;18.75;;
15486;SDS011;7845;53.698;10.078;2024-03-08T06:25:01;25.00;;;20.25;;
15486;SDS011;7845;53.698;10.078;2024-03-08T06:27:26;23.00;;;22.00;;
15486;SDS011;7845;53.698;10.078;2024-03-08T06:29:51;19.00;;;17.25;;
15486;SDS011;7845;53.698;10.078;2024-03-08T06:32:17;21.00;;;19.00;;
15486;SDS011;7845;53.698;10.078;2024-03-08T06:34:43;22.00;;;19.50;;
15486;SDS011;7845;53.698;10.078;2024-03-08T06:37:09;20.25;;;18.00;;
15486;SDS011;7845;53.698;10.078;2024-03-08T06:39:34;25.00;;;24.00;;
15486;SDS011;7845;53.698;10.078;2024-03-08T06:42:01;25.75;;;21.75;;
15486;SDS011;7845;53.698;10.078;2024-03-08T06:44:26;26.50;;;23.50;;
15486;SDS011;7845;53.698;10.078;2024-03-08T06:46:52;19.75;;;18.75;;
15486;SDS011;7845;53.698;10.078;2024-03-08T06:49:17;21.00;;;18.75;;
15486;SDS011;7845;53.698;10.078;2024-03-08T06:51:43;30.75;;;25.00;;
15486;SDS011;7845;53.698;10.078;2024-03-08T06:54:08;23.50;;;18.25;;
15486;SDS011;7845;53.698;10.078;2024-03-08T06:56:37;23.00;;;21.25;;
15486;SDS011;7845;53.698;10.078;2024-03-08T06:59:02;22.75;;;21.25;;
15486;SDS011;7845;53.698;10.078;2024-03-08T07:01:28;24.00;;;21.75;;
15486;SDS011;7845;53.698;10.078;2024-03-08T07:03:57;27.00;;;24.50;;
15486;SDS011;7845;53.698;10.078;2024-03-08T07:06:27;21.75;;;18.25;;
15486;SDS011;7845;53.698;10.078;2024-03-08T07:08:53;23.00;;;21.75;;
15486;SDS011;7845;53.698;10.078;2024-03-08T07:11:19;22.25;;;21.75;;
15486;SDS011;7845;53.698;10.078;2024-03-08T07:13:45;23.00;;;22.25;;
15486;SDS011;7845;53.698;10.078;2024-03-08T07:16:10;20.25;;;18.25;;
15486;SDS011;7845;53.698;10.078;2024-03-08T07:18:37;22.25;;;18.50;;
15486;SDS011;7845;53.698;10.078;2024-03-08T07:21:04;25.75;;;23.00;;
15486;SDS011;7845;53.698;10.078;2024-03-08T07:23:30;27.50;;;25.25;;
15486;SDS011;7845;53.698;10.078;2024-03-08T07:26:17;19.00;;;18.75;;
15486;SDS011;7845;53.698;10.078;2024-03-08T07:28:44;24.75;;;21.25;;
15486;SDS011;7845;53.698;10.078;2024-03-08T07:31:09;50.25;;;47.00;;
15486;SDS011;7845;53.698;10.078;2024-03-08T07:33:42;29.25;;;27.25;;
15486;SDS011;7845;53.698;10.078;2024-03-08T07:36:07;32.75;;;31.00;;
15486;SDS011;7845;53.698;10.078;2024-03-08T07:38:33;25.75;;;24.75;;
15486;SDS011;7845;53.698;10.078;2024-03-08T07:40:59;29.00;;;26.00;;
15486;SDS011;7845;53.698;10.078;2024-03-08T07:43:25;34.50;;;34.50;;
15486;SDS011;7845;53.698;10.078;2024-03-08T07:45:50;31.50;;;31.50;;
15486;SDS011;7845;53.698;10.078;2024-03-08T07:48:17;35.00;;;31.50;;
15486;SDS011;7845;53.698;10.078;2024-03-08T07:50:43;32.25;;;30.50;;
15486;SDS011;7845;53.698;10.078;2024-03-08T07:53:08;30.75;;;28.75;;
15486;SDS011;7845;53.698;10.078;2024-03-08T07:55:35;27.00;;;24.25;;
15486;SDS011;7845;53.698;10.078;2024-03-08T07:58:01;38.75;;;34.50;;
15486;SDS011;7845;53.698;10.078;2024-03-08T08:00:27;28.50;;;26.00;;
15486;SDS011;7845;53.698;10.078;2024-03-08T08:02:53;31.00;;;27.25;;
15486;SDS011;7845;53.698;10.078;2024-03-08T08:05:19;38.25;;;32.25;;
15486;SDS011;7845;53.698;10.078;2024-03-08T08:07:44;34.75;;;33.25;;
15486;SDS011;7845;53.698;10.078;2024-03-08T08:10:11;30.00;;;26.50;;
15486;SDS011;7845;53.698;10.078;2024-03-08T08:12:43;33.75;;;29.00;;
15486;SDS011;7845;53.698;10.078;2024-03-08T08:15:09;27.75;;;24.75;;
15486;SDS011;7845;53.698;10.078;2024-03-08T08:17:35;21.50;;;20.50;;
15486;SDS011;7845;53.698;10.078;2024-03-08T08:20:00;21.50;;;19.00;;
15486;SDS011;7845;53.698;10.078;2024-03-08T08:22:25;25.50;;;21.75;;
15486;SDS011;7845;53.698;10.078;2024-03-08T08:24:51;19.75;;;16.25;;
15486;SDS011;7845;53.698;10.078;2024-03-08T08:27:17;34.00;;;26.00;;
15486;SDS011;7845;53.698;10.078;2024-03-08T08:29:42;23.75;;;22.25;;
15486;SDS011;7845;53.698;10.078;2024-03-08T08:32:08;26.50;;;23.50;;
15486;SDS011;7845;53.698;10.078;2024-03-08T08:34:33;27.25;;;23.00;;
15486;SDS011;7845;53.698;10.078;2024-03-08T08:36:59;31.50;;;30.25;;
15486;SDS011;7845;53.698;10.078;2024-03-08T08:39:24;18.25;;;16.25;;
15486;SDS011;7845;53.698;10.078;2024-03-08T08:41:50;27.25;;;27.00;;
15486;SDS011;7845;53.698;10.078;2024-03-08T08:44:16;34.25;;;28.00;;
15486;SDS011;7845;53.698;10.078;2024-03-08T08:46:41;32.75;;;30.25;;
15486;SDS011;7845;53.698;10.078;2024-03-08T08:49:07;28.75;;;27.25;;
15486;SDS011;7845;53.698;10.078;2024-03-08T08:51:35;25.00;;;22.25;;
15486;SDS011;7845;53.698;10.078;2024-03-08T08:54:01;20.50;;;20.50;;
15486;SDS011;7845;53.698;10.078;2024-03-08T08:56:27;23.50;;;21.50;;
15486;SDS011;7845;53.698;10.078;2024-03-08T08:58:53;27.00;;;25.25;;
15486;SDS011;7845;53.698;10.078;2024-03-08T09:01:19;25.50;;;23.00;;
15486;SDS011;7845;53.698;10.078;2024-03-08T09:03:45;25.50;;;25.50;;
15486;SDS011;7845;53.698;10.078;2024-03-08T09:06:15;33.75;;;30.00;;
15486;SDS011;7845;53.698;10.078;2024-03-08T09:08:41;29.50;;;25.00;;
15486;SDS011;7845;53.698;10.078;2024-03-08T09:11:09;19.50;;;19.50;;
15486;SDS011;7845;53.698;10.078;2024-03-08T09:13:35;28.00;;;26.00;;
15486;SDS011;7845;53.698;10.078;2024-03-08T09:16:01;30.50;;;26.00;;
15486;SDS011;7845;53.698;10.078;2024-03-08T09:18:28;25.25;;;21.50;;
15486;SDS011;7845;53.698;10.078;2024-03-08T09:20:54;21.00;;;18.50;;
15486;SDS011;7845;53.698;10.078;2024-03-08T09:23:19;15.75;;;14.00;;
15486;SDS011;7845;53.698;10.078;2024-03-08T09:25:45;20.75;;;19.75;;
15486;SDS011;7845;53.698;10.078;2024-03-08T09:28:11;30.00;;;26.75;;
15486;SDS011;7845;53.698;10.078;2024-03-08T09:30:37;27.25;;;24.25;;
15486;SDS011;7845;53.698;10.078;2024-03-08T09:33:03;31.25;;;26.00;;
15486;SDS011;7845;53.698;10.078;2024-03-08T09:35:29;26.50;;;23.50;;
15486;SDS011;7845;53.698;10.078;2024-03-08T09:37:55;28.00;;;23.50;;
15486;SDS011;7845;53.698;10.078;2024-03-08T09:40:21;28.75;;;28.75;;
15486;SDS011;7845;53.698;10.078;2024-03-08T09:42:49;27.50;;;25.00;;
15486;SDS011;7845;53.698;10.078;2024-03-08T09:45:15;26.75;;;24.25;;
15486;SDS011;7845;53.698;10.078;2024-03-08T09:47:42;31.50;;;27.25;;
15486;SDS011;7845;53.698;10.078;2024-03-08T09:50:09;31.00;;;28.00;;
15486;SDS011;7845;53.698;10.078;2024-03-08T09:52:37;30.50;;;29.00;;
15486;SDS011;7845;53.698;10.078;2024-03-08T09:55:07;19.75;;;18.75;;
15486;SDS011;7845;53.698;10.078;2024-03-08T09:57:36;31.00;;;24.50;;
15486;SDS011;7845;53.698;10.078;2024-03-08T10:00:02;28.25;;;27.25;;
15486;SDS011;7845;53.698;10.078;2024-03-08T10:02:33;37.00;;;32.00;;
15486;SDS011;7845;53.698;10.078;2024-03-08T10:05:00;26.75;;;25.50;;
15486;SDS011;7845;53.698;10.078;2024-03-08T10:07:28;25.25;;;22.50;;
15486;SDS011;7845;53.698;10.078;2024-03-08T10:09:53;31.50;;;30.75;;
15486;SDS011;7845;53.698;10.078;2024-03-08T10:12:19;25.00;;;25.00;;
15486;SDS011;7845;53.698;10.078;2024-03-08T10:14:45;33.50;;;30.50;;
15486;SDS011;7845;53.698;10.078;2024-03-08T10:17:11;35.00;;;29.50;;
15486;SDS011;7845;53.698;10.078;2024-03-08T10:19:37;28.50;;;27.25;;
15486;SDS011;7845;53.698;10.078;2024-03-08T10:22:03;26.00;;;24.25;;
15486;SDS011;7845;53.698;10.078;2024-03-08T10:24:29;33.75;;;32.50;;
15486;SDS011;7845;53.698;10.078;2024-03-08T10:26:59;31.50;;;30.00;;
15486;SDS011;7845;53.698;10.078;2024-03-08T10:29:26;25.75;;;23.25;;
15486;SDS011;7845;53.698;10.078;2024-03-08T10:31:51;19.50;;;19.00;;
15486;SDS011;7845;53.698;10.078;2024-03-08T10:34:17;25.50;;;24.75;;
15486;SDS011;7845;53.698;10.078;2024-03-08T10:36:42;42.50;;;37.25;;
15486;SDS011;7845;53.698;10.078;2024-03-08T10:39:41;30.00;;;25.50;;
15486;SDS011;7845;53.698;10.078;2024-03-08T10:42:02;31.00;;;30.00;;
15486;SDS011;7845;53.698;10.078;2024-03-08T10:49:50;31.50;;;29.25;;
15486;SDS011;7845;53.698;10.078;2024-03-08T10:52:20;31.50;;;23.00;;
15486;SDS011;7845;53.698;10.078;2024-03-08T10:54:47;35.25;;;27.50;;
15486;SDS011;7845;53.698;10.078;2024-03-08T10:57:14;27.25;;;24.75;;
15486;SDS011;7845;53.698;10.078;2024-03-08T10:59:43;30.50;;;27.50;;
15486;SDS011;7845;53.698;10.078;2024-03-08T11:02:11;24.50;;;22.50;;
15486;SDS011;7845;53.698;10.078;2024-03-08T11:04:37;34.25;;;31.25;;
15486;SDS011;7845;53.698;10.078;2024-03-08T11:07:03;29.75;;;26.25;;
15486;SDS011;7845;53.698;10.078;2024-03-08T11:09:32;31.50;;;27.00;;
15486;SDS011;7845;53.698;10.078;2024-03-08T11:14:59;20.50;;;19.50;;
15486;SDS011;7845;53.698;10.078;2024-03-08T11:19:59;31.75;;;30.00;;
15486;SDS011;7845;53.698;10.078;2024-03-08T11:22:32;37.25;;;35.00;;
15486;SDS011;7845;53.698;10.078;2024-03-08T11:25:05;35.00;;;30.50;;
15486;SDS011;7845;53.698;10.078;2024-03-08T11:27:38;31.25;;;28.25;;
15486;SDS011;7845;53.698;10.078;2024-03-08T11:30:04;29.25;;;25.25;;
15486;SDS011;7845;53.698;10.078;2024-03-08T11:32:35;27.67;;;25.33;;
15486;SDS011;7845;53.698;10.078;2024-03-08T11:35:01;31.25;;;28.25;;
15486;SDS011;7845;53.698;10.078;2024-03-08T11:37:33;26.00;;;23.67;;
15486;SDS011;7845;53.698;10.078;2024-03-08T11:40:02;29.25;;;27.75;;
15486;SDS011;7845;53.698;10.078;2024-03-08T11:42:37;19.75;;;19.00;;
15486;SDS011;7845;53.698;10.078;2024-03-08T11:45:07;24.33;;;24.33;;
15486;SDS011;7845;53.698;10.078;2024-03-08T11:47:34;25.75;;;24.75;;
15486;SDS011;7845;53.698;10.078;2024-03-08T11:50:00;29.75;;;26.75;;
15486;SDS011;7845;53.698;10.078;2024-03-08T11:52:28;28.25;;;26.75;;
15486;SDS011;7845;53.698;10.078;2024-03-08T11:54:54;28.00;;;26.25;;
15486;SDS011;7845;53.698;10.078;2024-03-08T11:57:25;21.00;;;18.67;;
15486;SDS011;7845;53.698;10.078;2024-03-08T11:59:51;28.33;;;26.67;;
15486;SDS011;7845;53.698;10.078;2024-03-08T12:02:21;22.33;;;21.33;;
15486;SDS011;7845;53.698;10.078;2024-03-08T12:04:50;33.00;;;27.75;;
15486;SDS011;7845;53.698;10.078;2024-03-08T12:07:22;27.00;;;26.50;;
15486;SDS011;7845;53.698;10.078;2024-03-08T12:10:21;28.33;;;25.33;;
15486;SDS011;7845;53.698;10.078;2024-03-08T12:12:42;25.00;;;25.00;;
15486;SDS011;7845;53.698;10.078;2024-03-08T12:15:09;23.67;;;21.33;;
15486;SDS011;7845;53.698;10.078;2024-03-08T12:17:36;27.33;;;26.00;;
15486;SDS011;7845;53.698;10.078;2024-03-08T12:20:17;24.33;;;24.00;;
15486;SDS011;7845;53.698;10.078;2024-03-08T12:22:44;16.00;;;14.00;;
15486;SDS011;7845;53.698;10.078;2024-03-08T12:25:13;27.00;;;26.33;;
15486;SDS011;7845;53.698;10.078;2024-03-08T12:27:39;9.33;;;8.00;;
15486;SDS011;7845;53.698;10.078;2024-03-08T12:33:24;24.67;;;23.00;;
15486;SDS011;7845;53.698;10.078;2024-03-08T12:35:53;26.67;;;23.67;;
15486;SDS011;7845;53.698;10.078;2024-03-08T12:38:20;24.33;;;23.00;;
15486;SDS011;7845;53.698;10.078;2024-03-08T12:40:50;30.00;;;26.33;;
15486;SDS011;7845;53.698;10.078;2024-03-08T12:43:15;24.67;;;20.33;;
15486;SDS011;7845;53.698;10.078;2024-03-08T12:45:41;26.33;;;24.67;;
15486;SDS011;7845;53.698;10.078;2024-03-08T12:48:12;27.33;;;23.33;;
15486;SDS011;7845;53.698;10.078;2024-03-08T12:50:40;26.67;;;25.00;;
15486;SDS011;7845;53.698;10.078;2024-03-08T12:53:05;30.67;;;24.67;;
15486;SDS011;7845;53.698;10.078;2024-03-08T12:55:31;29.00;;;24.67;;
15486;SDS011;7845;53.698;10.078;2024-03-08T12:57:57;29.33;;;25.33;;
15486;SDS011;7845;53.698;10.078;2024-03-08T13:00:23;28.33;;;26.67;;
15486;SDS011;7845;53.698;10.078;2024-03-08T13:02:49;22.25;;;21.00;;
15486;SDS011;7845;53.698;10.078;2024-03-08T13:05:16;27.75;;;27.00;;
15486;SDS011;7845;53.698;10.078;2024-03-08T13:07:42;27.67;;;23.33;;
15486;SDS011;7845;53.698;10.078;2024-03-08T13:10:11;25.33;;;23.67;;
15486;SDS011;7845;53.698;10.078;2024-03-08T13:12:45;25.33;;;20.33;;
15486;SDS011;7845;53.698;10.078;2024-03-08T13:15:10;24.67;;;23.33;;
15486;SDS011;7845;53.698;10.078;2024-03-08T13:17:39;24.00;;;22.67;;
15486;SDS011;7845;53.698;10.078;2024-03-08T13:20:05;24.00;;;21.67;;
15486;SDS011;7845;53.698;10.078;2024-03-08T13:22:32;24.00;;;23.33;;
15486;SDS011;7845;53.698;10.078;2024-03-08T13:25:01;24.33;;;22.33;;
15486;SDS011;7845;53.698;10.078;2024-03-08T13:27:30;30.33;;;25.33;;
15486;SDS011;7845;53.698;10.078;2024-03-08T13:29:55;20.33;;;19.00;;
15486;SDS011;7845;53.698;10.078;2024-03-08T13:32:21;26.67;;;23.33;;
15486;SDS011;7845;53.698;10.078;2024-03-08T13:34:47;24.33;;;21.67;;
15486;SDS011;7845;53.698;10.078;2024-03-08T13:37:12;22.00;;;21.33;;
15486;SDS011;7845;53.698;10.078;2024-03-08T13:39:41;24.00;;;23.33;;
15486;SDS011;7845;53.698;10.078;2024-03-08T13:42:08;24.33;;;23.00;;
15486;SDS011;7845;53.698;10.078;2024-03-08T13:44:47;22.67;;;20.33;;
15486;SDS011;7845;53.698;10.078;2024-03-08T13:47:14;26.00;;;24.67;;
15486;SDS011;7845;53.698;10.078;2024-03-08T13:49:40;23.00;;;22.25;;
15486;SDS011;7845;53.698;10.078;2024-03-08T13:52:06;23.33;;;22.33;;
15486;SDS011;7845;53.698;10.078;2024-03-08T13:54:33;24.00;;;19.00;;
15486;SDS011;7845;53.698;10.078;2024-03-08T13:57:00;26.33;;;22.33;;
15486;SDS011;7845;53.698;10.078;2024-03-08T13:59:25;25.67;;;24.00;;
15486;SDS011;7845;53.698;10.078;2024-03-08T14:01:54;21.33;;;20.00;;
15486;SDS011;7845;53.698;10.078;2024-03-08T14:04:19;24.00;;;21.00;;
15486;SDS011;7845;53.698;10.078;2024-03-08T14:06:45;26.67;;;25.67;;
15486;SDS011;7845;53.698;10.078;2024-03-08T14:09:11;27.67;;;27.00;;
15486;SDS011;7845;53.698;10.078;2024-03-08T14:11:42;20.67;;;20.67;;
15486;SDS011;7845;53.698;10.078;2024-03-08T14:14:10;20.25;;;20.00;;
15486;SDS011;7845;53.698;10.078;2024-03-08T14:16:37;21.00;;;21.00;;
15486;SDS011;7845;53.698;10.078;2024-03-08T14:19:04;23.67;;;21.00;;
15486;SDS011;7845;53.698;10.078;2024-03-08T14:21:32;15.75;;;12.75;;
15486;SDS011;7845;53.698;10.078;2024-03-08T14:23:58;15.75;;;14.00;;
15486;SDS011;7845;53.698;10.078;2024-03-08T14:26:24;25.67;;;21.67;;
15486;SDS011;7845;53.698;10.078;2024-03-08T14:28:49;22.33;;;19.67;;
15486;SDS011;7845;53.698;10.078;2024-03-08T14:31:19;23.25;;;22.00;;
15486;SDS011;7845;53.698;10.078;2024-03-08T14:33:45;24.00;;;23.00;;